createdAt,value
2023-02-25T00:02:17.512Z,64.68
2023-02-25T00:04:44.421Z,64.93
2023-02-25T00:07:11.076Z,64.90
2023-02-25T00:09:37.738Z,64.84
2023-02-25T00:12:04.698Z,65.29
2023-02-25T00:14:31.377Z,65.39
2023-02-25T00:16:58.217Z,65.34
2023-02-25T00:19:26.045Z,64.71
2023-02-25T00:21:52.684Z,66.09
2023-02-25T00:24:19.339Z,65.93
2023-02-25T00:26:46.031Z,66.24
2023-02-25T00:29:14.231Z,65.96
2023-02-25T00:31:41.171Z,66.54
2023-02-25T00:34:09.107Z,65.27
2023-02-25T00:36:36.180Z,66.21
2023-02-25T00:39:05.847Z,66.68
2023-02-25T00:41:33.951Z,66.76
2023-02-25T00:44:02.059Z,67.14
2023-02-25T00:46:30.434Z,68.05
2023-02-25T00:48:57.483Z,67.11
2023-02-25T00:51:30.519Z,67.87
2023-02-25T00:53:57.586Z,66.13
2023-02-25T00:56:25.989Z,66.42
2023-02-25T00:58:53.798Z,66.54
2023-02-25T01:01:22.066Z,66.65
2023-02-25T01:03:50.665Z,66.25
2023-02-25T01:06:17.658Z,65.60
2023-02-25T01:08:44.964Z,66.51
2023-02-25T01:11:21.405Z,66.09
2023-02-25T01:13:49.529Z,66.00
2023-02-25T01:16:19.195Z,66.31
2023-02-25T01:18:46.501Z,65.36
2023-02-25T01:21:17.597Z,66.05
2023-02-25T01:23:49.402Z,66.62
2023-02-25T01:26:16.573Z,66.12
2023-02-25T01:28:43.877Z,65.56
2023-02-25T01:31:24.668Z,65.82
2023-02-25T01:33:51.645Z,65.85
2023-02-25T01:36:18.863Z,65.19
2023-02-25T01:38:45.507Z,65.85
2023-02-25T01:41:12.216Z,66.51
2023-02-25T01:43:40.529Z,67.39
2023-02-25T01:46:07.252Z,67.98
2023-02-25T01:48:39.714Z,67.81
2023-02-25T01:51:10.540Z,67.59
2023-02-25T01:53:44.313Z,66.69
2023-02-25T01:56:14.485Z,66.95
2023-02-25T01:58:42.040Z,67.01
2023-02-25T02:01:13.031Z,65.55
2023-02-25T02:03:41.442Z,66.00
2023-02-25T02:06:28.646Z,66.40
2023-02-25T02:08:55.562Z,66.47
2023-02-25T02:11:22.220Z,66.97
2023-02-25T02:13:54.481Z,65.19
2023-02-25T02:16:44.939Z,66.13
2023-02-25T02:19:27.702Z,65.81
2023-02-25T02:22:14.663Z,64.47
2023-02-25T02:25:02.606Z,65.07
2023-02-25T02:27:45.049Z,65.03
2023-02-25T02:30:53.803Z,65.59
2023-02-25T02:34:06.505Z,65.89
2023-02-25T02:36:58.305Z,65.79
2023-02-25T02:39:34.022Z,64.62
2023-02-25T02:42:21.228Z,64.56
2023-02-25T02:45:16.159Z,64.87
2023-02-25T02:47:46.688Z,62.66
2023-02-25T02:50:39.477Z,63.86
2023-02-25T02:53:29.119Z,62.77
2023-02-25T08:01:57.742Z,55.49
2023-02-25T08:04:24.646Z,55.38
2023-02-25T08:06:51.624Z,56.65
2023-02-25T08:09:18.358Z,55.43
2023-02-25T08:11:46.338Z,54.89
2023-02-25T08:14:12.937Z,55.19
2023-02-25T08:16:39.628Z,56.03
2023-02-25T08:19:06.813Z,56.10
2023-02-25T08:21:33.906Z,56.27
2023-02-25T08:24:00.565Z,56.28
2023-02-25T08:26:27.649Z,55.88
2023-02-25T08:28:56.041Z,56.68
2023-02-25T08:31:23.177Z,56.46
2023-02-25T08:33:57.088Z,55.89
2023-02-25T08:36:26.746Z,55.66
2023-02-25T08:38:55.163Z,56.36
2023-02-25T08:41:23.411Z,55.62
2023-02-25T08:43:52.064Z,55.99
2023-02-25T08:46:21.144Z,56.34
2023-02-25T08:48:50.008Z,55.87
2023-02-25T08:51:18.639Z,56.84
2023-02-25T08:53:45.285Z,55.63
2023-02-25T08:56:13.841Z,55.71
2023-02-25T08:58:40.891Z,55.17
2023-02-25T09:01:12.877Z,55.34
2023-02-25T09:03:50.982Z,55.45
2023-02-25T09:06:21.499Z,56.46
2023-02-25T09:08:48.296Z,57.00
2023-02-25T09:11:15.462Z,55.86
2023-02-25T09:13:42.423Z,55.08
2023-02-25T09:16:09.287Z,56.53
2023-02-25T09:18:36.440Z,56.36
2023-02-25T09:21:03.406Z,56.04
2023-02-25T09:23:30.083Z,56.23
2023-02-25T09:25:56.717Z,55.83
2023-02-25T09:28:24.543Z,55.22
2023-02-25T09:30:51.430Z,56.48
2023-02-25T09:33:18.183Z,55.46
2023-02-25T09:35:45.225Z,56.76
2023-02-25T09:38:13.013Z,58.15
2023-02-25T09:40:45.159Z,57.47
2023-02-25T09:43:26.705Z,55.47
2023-02-25T09:46:05.683Z,55.83
2023-02-25T09:48:37.880Z,55.08
2023-02-25T09:51:19.028Z,55.07
2023-02-25T09:53:52.349Z,55.42
2023-02-25T09:56:21.824Z,54.92
2023-02-25T09:58:58.337Z,55.41
2023-02-25T10:01:42.183Z,55.88
2023-02-25T10:04:14.717Z,60.97
2023-02-25T10:06:46.472Z,61.67
2023-02-25T10:09:37.325Z,60.60
2023-02-25T10:12:31.861Z,59.46
2023-02-25T10:15:23.021Z,58.26
2023-02-25T10:18:37.837Z,57.88
2023-02-25T10:21:10.466Z,57.18
2023-02-25T10:23:59.019Z,56.85
2023-02-25T10:26:33.423Z,56.12
2023-02-25T10:29:05.586Z,59.13
2023-02-25T10:31:33.052Z,58.23
2023-02-25T10:34:21.630Z,57.45
2023-02-25T10:36:57.539Z,57.32
2023-02-25T10:39:26.591Z,57.34
2023-02-25T10:41:53.520Z,56.53
2023-02-25T10:44:20.390Z,56.35
2023-02-25T10:47:01.467Z,56.64
2023-02-25T10:49:30.215Z,57.29
2023-02-25T10:52:06.226Z,56.10
2023-02-25T10:54:35.440Z,56.43
2023-02-25T10:57:09.017Z,56.82
2023-02-25T10:59:41.191Z,55.71
2023-02-25T11:02:25.624Z,55.60
2023-02-25T11:04:53.600Z,56.25
2023-02-25T11:07:43.499Z,56.27
2023-02-25T11:10:16.070Z,56.52
2023-02-25T11:12:47.239Z,55.85
2023-02-25T11:15:50.065Z,58.76
2023-02-25T11:18:29.571Z,58.94
2023-02-25T11:21:00.601Z,59.07
2023-02-25T11:23:33.081Z,57.53
2023-02-25T11:26:00.345Z,56.80
2023-02-25T11:28:39.661Z,55.68
2023-02-25T11:31:24.932Z,55.22
2023-02-25T11:34:01.182Z,53.79
2023-02-25T11:36:34.404Z,54.02
2023-02-25T11:39:14.486Z,51.97
2023-02-25T11:41:43.820Z,52.85
2023-02-25T11:44:45.267Z,53.04
2023-02-25T11:47:25.623Z,53.02
2023-02-25T11:50:06.645Z,52.50
2023-02-25T11:52:48.564Z,52.70
2023-02-25T11:55:36.710Z,51.81
2023-02-25T11:58:22.871Z,48.18
2023-02-25T12:01:16.818Z,49.13
2023-02-25T12:04:01.839Z,49.67
2023-02-25T12:06:44.125Z,50.32
2023-02-25T12:09:41.669Z,50.85
2023-02-25T12:12:08.370Z,52.12
2023-02-25T12:15:03.701Z,50.40
2023-02-25T12:17:58.240Z,51.43
2023-02-25T12:21:15.209Z,51.31
2023-02-25T12:24:04.173Z,50.66
2023-02-25T12:26:51.061Z,50.26
2023-02-25T12:29:36.257Z,48.78
2023-02-25T12:32:12.296Z,49.12
2023-02-25T12:34:51.156Z,49.29
2023-02-25T12:37:34.027Z,48.79
2023-02-25T12:40:24.379Z,49.56
2023-02-25T12:43:06.829Z,48.28
2023-02-25T12:45:59.468Z,47.07
2023-02-25T12:48:38.238Z,49.13
2023-02-25T12:51:21.447Z,50.93
2023-02-25T12:54:02.614Z,45.65
2023-02-25T12:56:41.364Z,46.17
2023-02-25T12:59:35.850Z,46.00
2023-02-25T13:02:19.816Z,46.08
2023-02-25T13:05:12.994Z,45.85
2023-02-25T13:08:07.224Z,44.87
2023-02-25T13:11:22.590Z,47.36
2023-02-25T13:14:12.274Z,47.34
2023-02-25T13:17:01.107Z,47.53
2023-02-25T13:19:58.784Z,49.11
2023-02-25T13:22:48.716Z,47.92
2023-02-25T13:25:36.079Z,47.88
2023-02-25T13:28:29.481Z,47.14
2023-02-25T13:31:05.978Z,47.43
2023-02-25T13:33:51.475Z,47.69
2023-02-25T13:36:44.572Z,49.28
2023-02-25T13:39:32.433Z,54.10
2023-02-25T13:42:17.849Z,55.92
2023-02-25T13:45:01.505Z,56.32
2023-02-25T13:47:54.192Z,56.50
2023-02-25T13:50:46.678Z,56.08
2023-02-25T13:53:22.909Z,55.68
2023-02-25T13:56:26.654Z,56.52
2023-02-25T13:58:56.046Z,55.37
2023-02-25T14:01:30.248Z,56.00
2023-02-25T14:04:06.171Z,55.66
2023-02-25T14:06:44.948Z,55.34
2023-02-25T14:09:27.431Z,52.56
2023-02-25T14:12:12.657Z,50.67
2023-02-25T14:15:00.876Z,49.67
2023-02-25T14:17:50.167Z,49.19
2023-02-25T14:20:36.703Z,48.64
2023-02-25T14:23:20.950Z,49.62
2023-02-25T14:26:07.316Z,49.43
2023-02-25T14:28:51.874Z,49.08
2023-02-25T14:31:34.344Z,48.25
2023-02-25T14:34:12.392Z,47.39
2023-02-25T14:36:59.896Z,47.30
2023-02-25T14:39:45.740Z,46.26
2023-02-25T14:42:33.116Z,46.97
2023-02-25T14:45:26.225Z,49.14
2023-02-25T14:48:04.400Z,50.72
2023-02-25T14:50:46.280Z,50.74
2023-02-25T14:53:46.306Z,51.15
2023-02-25T14:56:37.541Z,52.25
2023-02-25T14:59:24.494Z,53.14
2023-02-25T15:02:26.009Z,54.00
2023-02-25T15:05:23.245Z,53.38
2023-02-25T15:08:12.139Z,53.98
2023-02-25T15:10:50.698Z,53.64
2023-02-25T15:13:46.579Z,53.70
2023-02-25T15:16:51.354Z,54.84
2023-02-25T15:19:44.264Z,55.74
2023-02-25T15:22:18.341Z,56.00
2023-02-25T15:24:45.772Z,55.93
2023-02-25T15:27:37.189Z,53.21
2023-02-25T15:30:24.594Z,53.57
2023-02-25T15:33:00.698Z,53.74
2023-02-25T15:35:36.272Z,54.41
2023-02-25T15:38:13.576Z,55.20
2023-02-25T15:40:48.885Z,53.53
2023-02-25T15:43:16.136Z,53.18
2023-02-25T15:45:51.556Z,53.20
2023-02-25T15:48:21.130Z,53.75
2023-02-25T15:50:47.691Z,54.22
2023-02-25T15:53:21.152Z,54.11
2023-02-25T15:55:52.812Z,54.13
2023-02-25T15:58:25.568Z,53.66
2023-02-25T16:00:52.321Z,53.35
2023-02-25T16:03:31.228Z,57.23
2023-02-25T16:06:20.667Z,60.19
2023-02-25T16:08:56.648Z,60.65
2023-02-25T16:11:50.987Z,59.85
2023-02-25T16:14:26.538Z,60.90
2023-02-25T16:16:59.208Z,60.75
2023-02-25T16:19:33.253Z,60.73
2023-02-25T16:22:03.626Z,60.79
2023-02-25T16:24:31.012Z,59.52
2023-02-25T16:27:04.625Z,59.73
2023-02-25T16:29:44.185Z,59.66
2023-02-25T16:32:38.699Z,61.73
2023-02-25T16:35:18.321Z,61.08
2023-02-25T16:37:57.032Z,62.62
2023-02-25T16:40:50.093Z,61.82
2023-02-25T16:43:22.262Z,63.08
2023-02-25T16:45:59.138Z,61.02
2023-02-25T16:48:36.827Z,60.92
2023-02-25T16:51:36.813Z,61.91
2023-02-25T16:54:06.167Z,61.00
2023-02-25T16:56:33.517Z,60.73
2023-02-25T16:59:14.971Z,61.17
2023-02-25T17:02:22.013Z,59.65
2023-02-25T17:04:56.165Z,61.19
2023-02-25T17:07:24.308Z,60.23
2023-02-25T17:09:53.848Z,61.60
2023-02-25T17:12:41.105Z,61.55
2023-02-25T17:15:16.182Z,60.92
2023-02-25T17:17:44.875Z,61.40
2023-02-25T17:20:19.209Z,62.22
2023-02-25T17:22:46.084Z,62.12
2023-02-25T17:25:16.113Z,62.16
2023-02-25T17:27:45.369Z,61.92
2023-02-25T17:30:40.392Z,62.40
2023-02-25T17:33:18.901Z,62.14
2023-02-25T17:35:48.206Z,62.02
2023-02-25T17:38:19.330Z,61.72
2023-02-25T17:40:47.060Z,61.61
2023-02-25T17:43:19.636Z,62.24
2023-02-25T17:45:53.422Z,63.10
2023-02-25T17:48:23.904Z,62.02
2023-02-25T17:51:00.845Z,62.23
2023-02-25T17:53:37.828Z,61.83
2023-02-25T17:56:10.646Z,61.64
2023-02-25T17:58:37.466Z,60.92
2023-02-25T18:01:05.820Z,61.67
2023-02-25T18:03:45.057Z,60.15
2023-02-25T18:06:38.421Z,59.17
2023-02-25T18:09:05.281Z,59.70
2023-02-25T18:11:36.251Z,59.70
2023-02-25T18:14:22.673Z,59.85
2023-02-25T18:16:52.195Z,59.93
2023-02-25T18:19:24.714Z,59.85
2023-02-25T18:21:52.777Z,57.95
2023-02-25T18:24:36.113Z,57.26
2023-02-25T18:27:14.939Z,55.82
2023-02-25T18:29:41.633Z,55.75
2023-02-25T18:32:08.409Z,55.32
2023-02-25T18:34:35.134Z,54.46
2023-02-25T18:37:02.255Z,54.64
2023-02-25T18:39:28.906Z,54.44
2023-02-25T18:41:55.540Z,53.60
2023-02-25T18:44:22.284Z,53.55
2023-02-25T18:46:49.032Z,53.26
2023-02-25T18:49:15.799Z,53.05
2023-02-25T18:51:42.579Z,51.53
2023-02-25T18:54:16.119Z,51.26
2023-02-25T18:56:43.112Z,51.00
2023-02-25T18:59:09.824Z,50.11
2023-02-25T19:01:37.354Z,48.69
2023-02-25T19:04:04.083Z,48.85
2023-02-25T19:06:33.693Z,47.77
2023-02-25T19:09:01.029Z,47.49
2023-02-25T19:11:35.798Z,47.20
2023-02-25T19:14:04.266Z,47.34
2023-02-25T19:16:31.071Z,47.19
2023-02-25T19:18:57.994Z,47.89
2023-02-25T19:21:24.829Z,47.46
2023-02-25T19:23:53.476Z,47.21
2023-02-25T19:26:21.048Z,47.11
2023-02-25T19:28:47.847Z,47.94
2023-02-25T19:31:14.718Z,46.73
2023-02-25T19:33:41.478Z,45.57
2023-02-25T19:36:08.683Z,45.56
2023-02-25T19:38:36.077Z,44.29
2023-02-25T19:41:05.978Z,44.69
2023-02-25T19:43:33.266Z,43.92
2023-02-25T19:46:00.010Z,43.82
2023-02-25T19:48:27.017Z,43.12
2023-02-25T19:50:53.825Z,43.26
2023-02-25T19:53:20.522Z,42.48
2023-02-25T19:55:47.228Z,43.34
2023-02-25T19:58:14.111Z,42.92
2023-02-25T20:00:45.871Z,43.57
2023-02-25T20:03:13.857Z,42.53
2023-02-25T20:05:41.622Z,42.76
2023-02-25T20:08:09.082Z,42.89
2023-02-25T20:10:36.203Z,43.21
2023-02-25T20:13:03.135Z,43.04
2023-02-25T20:15:29.976Z,42.93
2023-02-25T20:17:57.575Z,42.88
2023-02-25T20:20:24.900Z,44.11
2023-02-25T20:22:52.234Z,43.50
2023-02-25T20:25:19.340Z,43.72
2023-02-25T20:27:46.153Z,44.31
2023-02-25T20:30:15.426Z,43.79
2023-02-25T20:32:44.208Z,43.74
2023-02-25T20:35:20.492Z,44.32
2023-02-25T20:38:08.380Z,46.39
2023-02-25T20:40:35.320Z,46.46
2023-02-25T20:43:02.098Z,45.91
2023-02-25T20:45:30.049Z,45.94
2023-02-25T20:47:56.917Z,46.48
2023-02-25T20:50:27.836Z,45.77
2023-02-25T20:52:54.968Z,48.00
2023-02-25T20:55:21.710Z,45.61
2023-02-25T20:57:48.362Z,46.65
2023-02-25T21:00:16.545Z,46.08
2023-02-25T21:02:43.598Z,47.61
2023-02-25T21:05:10.289Z,48.88
2023-02-25T21:07:36.904Z,46.19
2023-02-25T21:10:03.853Z,46.35
2023-02-25T21:12:30.765Z,45.93
2023-02-25T21:14:57.705Z,46.92
2023-02-25T21:17:24.447Z,44.90
2023-02-25T21:19:51.464Z,47.30
2023-02-25T21:22:18.673Z,50.21
2023-02-25T21:24:45.521Z,44.12
2023-02-25T21:27:12.148Z,44.21
2023-02-25T21:29:38.808Z,44.34
2023-02-25T21:32:05.547Z,44.57
2023-02-25T21:34:32.318Z,44.72
2023-02-25T21:36:59.328Z,46.09
2023-02-25T21:39:26.640Z,45.73
2023-02-25T21:41:53.588Z,45.16
2023-02-25T21:44:20.464Z,45.72
2023-02-25T21:46:47.883Z,45.67
2023-02-25T21:49:15.878Z,45.75
2023-02-25T21:51:42.834Z,46.07
2023-02-25T21:54:10.179Z,46.04
2023-02-25T21:56:36.893Z,46.46
2023-02-25T21:59:05.447Z,46.79
2023-02-25T22:01:38.490Z,46.80
2023-02-25T22:04:05.372Z,46.66
2023-02-25T22:06:32.431Z,46.88
2023-02-25T22:09:00.108Z,46.74
2023-02-25T22:11:29.779Z,48.08
2023-02-25T22:13:58.933Z,47.28
2023-02-25T22:16:26.534Z,46.78
2023-02-25T22:18:53.684Z,46.81
2023-02-25T22:21:25.732Z,47.12
2023-02-25T22:23:55.256Z,47.22
2023-02-25T22:26:25.641Z,47.12
2023-02-25T22:28:54.773Z,47.34
2023-02-25T22:31:21.719Z,48.36
2023-02-25T22:33:48.749Z,48.41
2023-02-25T22:36:17.100Z,48.22
2023-02-25T22:38:45.159Z,48.03
2023-02-25T22:41:17.402Z,48.19
2023-02-25T22:43:44.868Z,47.88
2023-02-25T22:46:17.294Z,48.63
2023-02-25T22:48:45.988Z,48.78
2023-02-25T22:51:14.043Z,48.88
2023-02-25T22:53:41.090Z,48.57
2023-02-25T22:56:10.590Z,47.99
2023-02-25T22:58:40.452Z,48.35
2023-02-25T23:01:11.767Z,48.36
2023-02-25T23:03:39.019Z,47.78
2023-02-25T23:06:06.758Z,47.69
2023-02-25T23:08:34.728Z,48.21
2023-02-25T23:11:19.786Z,48.10
2023-02-25T23:13:49.976Z,48.48
2023-02-25T23:16:19.430Z,49.51
2023-02-25T23:18:47.558Z,48.77
2023-02-25T23:21:19.081Z,48.54
2023-02-25T23:23:51.540Z,48.54
2023-02-25T23:26:22.272Z,48.40
2023-02-25T23:28:49.532Z,49.96
2023-02-25T23:31:25.292Z,48.54
2023-02-25T23:34:09.319Z,49.11
2023-02-25T23:36:37.841Z,49.29
2023-02-25T23:39:06.142Z,48.49
2023-02-25T23:41:35.098Z,48.93
2023-02-25T23:44:03.249Z,49.55
2023-02-25T23:46:31.429Z,49.27
2023-02-25T23:49:00.908Z,48.66
2023-02-25T23:51:28.316Z,49.51
2023-02-25T23:54:06.008Z,48.37
2023-02-25T23:56:34.275Z,48.62
2023-02-25T23:59:01.577Z,48.48
